.
WxDataArchive / Data Records for 2013-10-05
2013-10-04 October 2013 2013-10-06

Data Records for Saturday, 05 October 2013

Time	Temp	Chill	HIndex	Humid	Dewpt	 Wind 	HiWind	WindDir	Rain 	Barom 
-----	----	-----	------	-----	-----	------	------	-------	-----	----- 
00:00	66.1	66.1	66.1	94	64.3	0	0	---	0.00	29.999 
00:05	66.0	66.0	66.0	94	64.2	0	0	---	0.00	29.999 
00:10	66.0	66.0	66.0	94	64.2	0	0	---	0.00	29.999 
00:15	66.0	66.0	66.0	94	64.2	0	0	---	0.00	29.995 
00:20	66.1	66.1	66.1	94	64.3	0	1	90	0.00	29.995 
00:25	66.1	66.1	66.1	94	64.3	0	2	90	0.00	29.995 
00:30	66.1	66.1	66.1	95	64.6	1	2	90	0.00	29.995 
00:35	66.0	66.0	66.0	95	64.5	0	1	90	0.00	29.995 
00:40	65.8	65.8	65.8	95	64.3	0	1	90	0.00	29.995 
00:45	65.8	65.8	65.8	95	64.3	0	1	90	0.00	29.989 
00:50	65.8	65.8	65.8	95	64.3	0	1	90	0.00	29.989 
00:55	65.6	65.6	65.6	95	64.1	0	1	90	0.00	29.989 
01:00	65.6	65.6	65.6	95	64.1	0	1	90	0.00	29.986 
01:05	65.5	65.5	65.5	95	64.0	0	1	90	0.00	29.986 
01:10	65.5	65.5	65.5	95	64.0	0	2	90	0.00	29.986 
01:15	65.3	65.3	65.3	95	63.8	0	2	90	0.00	29.993 
01:20	65.3	65.3	65.3	95	63.8	0	2	90	0.00	29.993 
01:25	65.3	65.3	65.3	95	63.8	0	1	90	0.00	29.993 
01:30	65.3	65.3	65.3	95	63.8	0	1	90	0.00	29.993 
01:35	65.3	65.3	65.3	95	63.8	0	0	---	0.00	29.993 
01:40	65.2	65.2	65.2	95	63.7	0	0	---	0.00	29.993 
01:45	65.2	65.2	65.2	95	63.7	0	2	90	0.00	29.995 
01:50	65.2	65.2	65.2	95	63.7	0	1	90	0.00	29.995 
01:55	65.2	65.2	65.2	95	63.7	0	0	---	0.00	29.995 
02:00	65.2	65.2	65.2	95	63.7	0	1	90	0.00	29.997 
02:05	65.2	65.2	65.2	96	64.0	0	1	90	0.00	29.997 
02:10	65.0	65.0	65.0	95	63.5	0	0	---	0.00	29.997 
02:15	65.0	65.0	65.0	96	63.8	0	0	---	0.00	29.996 
02:20	65.0	65.0	65.0	95	63.5	0	1	90	0.00	29.996 
02:25	64.8	64.8	64.8	95	63.3	0	0	---	0.00	29.996 
02:30	64.8	64.8	64.8	96	63.6	0	0	---	0.00	29.995 
02:35	64.8	64.8	64.8	96	63.6	0	1	90	0.00	29.995 
02:40	64.8	64.8	64.8	96	63.6	0	1	90	0.00	29.995 
02:45	64.7	64.7	64.7	96	63.5	0	1	90	0.00	29.991 
02:50	64.7	64.7	64.7	96	63.5	0	1	90	0.00	29.991 
02:55	64.5	64.5	64.5	96	63.3	0	1	90	0.00	29.991 
03:00	64.5	64.5	64.5	96	63.3	0	0	---	0.00	29.990 
03:05	64.3	64.3	64.3	96	63.1	0	0	---	0.00	29.990 
03:10	64.3	64.3	64.3	96	63.1	0	0	---	0.00	29.990 
03:15	64.2	64.2	64.2	96	63.0	0	0	---	0.00	29.989 
03:20	64.0	64.0	64.0	96	62.8	0	0	---	0.00	29.989 
03:25	63.9	63.9	63.9	96	62.7	0	0	---	0.00	29.989 
03:30	63.7	63.7	63.7	96	62.5	0	0	---	0.00	29.988 
03:35	63.7	63.7	63.7	96	62.5	0	0	---	0.00	29.988 
03:40	63.7	63.7	63.7	96	62.5	0	0	---	0.00	29.988 
03:45	63.5	63.5	63.5	96	62.3	0	0	---	0.00	29.988 
03:50	63.5	63.5	63.5	96	62.3	0	0	---	0.00	29.988 
03:55	63.5	63.5	63.5	96	62.3	0	0	---	0.00	29.988 
04:00	63.4	63.4	63.4	96	62.2	0	0	---	0.00	29.986 
04:05	63.4	63.4	63.4	96	62.2	0	0	---	0.00	29.986 
04:10	63.4	63.4	63.4	96	62.2	0	0	---	0.00	29.986 
04:15	63.5	63.5	63.5	96	62.3	0	0	---	0.00	29.988 
04:20	63.4	63.4	63.4	96	62.2	0	0	---	0.00	29.988 
04:25	63.4	63.4	63.4	96	62.2	0	0	---	0.00	29.988 
04:30	63.4	63.4	63.4	96	62.2	0	0	---	0.00	29.984 
04:35	63.4	63.4	63.4	96	62.2	0	0	---	0.00	29.984 
04:40	63.2	63.2	63.2	96	62.0	0	0	---	0.00	29.984 
04:45	63.2	63.2	63.2	96	62.0	0	0	---	0.00	29.990 
04:50	63.2	63.2	63.2	96	62.0	0	0	---	0.00	29.990 
04:55	63.2	63.2	63.2	96	62.0	0	0	---	0.00	29.990 
05:00	63.2	63.2	63.2	96	62.0	0	0	---	0.00	29.990 
05:05	63.1	63.1	63.1	96	61.9	0	0	---	0.00	29.990 
05:10	62.9	62.9	62.9	96	61.7	0	0	---	0.00	29.990 
05:15	62.7	62.7	62.7	96	61.5	0	0	---	0.00	29.984 
05:20	62.6	62.6	62.6	96	61.4	0	0	---	0.00	29.984 
05:25	62.6	62.6	62.6	96	61.4	0	0	---	0.00	29.984 
05:30	62.4	62.4	62.4	96	61.2	0	0	---	0.00	29.983 
05:35	62.4	62.4	62.4	96	61.2	0	0	---	0.00	29.983 
05:40	62.6	62.6	62.6	96	61.4	0	0	---	0.00	29.983 
05:45	62.6	62.6	62.6	96	61.4	0	0	---	0.00	29.976 
05:50	62.6	62.6	62.6	96	61.4	0	0	---	0.00	29.976 
05:55	62.6	62.6	62.6	96	61.4	0	0	---	0.00	29.976 
06:00	62.6	62.6	62.6	96	61.4	0	0	---	0.00	29.979 
06:05	62.6	62.6	62.6	96	61.4	0	0	---	0.00	29.979 
06:10	62.4	62.4	62.4	96	61.2	0	0	---	0.00	29.979 
06:15	62.4	62.4	62.4	96	61.2	0	0	---	0.00	29.985 
06:20	62.3	62.3	62.3	96	61.1	0	0	---	0.00	29.985 
06:25	62.1	62.1	62.1	96	60.9	0	0	---	0.00	29.985 
06:30	62.0	62.0	62.0	96	60.8	0	0	---	0.00	29.989 
06:35	61.8	61.8	61.8	96	60.6	0	0	---	0.00	29.989 
06:40	61.8	61.8	61.8	96	60.6	0	0	---	0.00	29.989 
06:45	61.6	61.6	61.6	96	60.4	0	0	---	0.00	29.990 
06:50	61.6	61.6	61.6	96	60.4	0	0	---	0.00	29.990 
06:55	61.5	61.5	61.5	96	60.3	0	0	---	0.00	29.990 
07:00	61.5	61.5	61.5	96	60.3	0	0	---	0.00	29.993 
07:05	61.5	61.5	61.5	96	60.3	0	0	---	0.00	29.993 
07:10	61.6	61.6	61.6	96	60.4	0	0	---	0.00	29.993 
07:15	61.8	61.8	61.8	96	60.6	0	0	---	0.00	29.989 
07:20	61.8	61.8	61.8	96	60.6	0	0	---	0.00	29.989 
07:25	62.0	62.0	62.0	96	60.8	0	0	---	0.00	29.989 
07:30	62.0	62.0	62.0	96	60.8	0	0	---	0.00	29.985 
07:35	62.0	62.0	62.0	96	60.8	0	0	---	0.00	29.985 
07:40	62.0	62.0	62.0	96	60.8	0	0	---	0.00	29.985 
07:45	62.0	62.0	62.0	96	60.8	0	0	---	0.00	29.980 
07:50	62.1	62.1	62.1	96	60.9	0	0	---	0.00	29.980 
07:55	62.3	62.3	62.3	96	61.1	0	0	---	0.00	29.980 
08:00	62.6	62.6	62.6	96	61.4	0	0	---	0.00	29.977 
08:05	63.1	63.1	63.1	96	61.9	0	0	---	0.00	29.977 
08:10	63.4	63.4	63.4	96	62.2	0	0	---	0.00	29.977 
08:15	63.5	63.5	63.5	96	62.3	0	0	---	0.00	29.976 
08:20	63.9	63.9	63.9	96	62.7	0	0	---	0.00	29.976 
08:25	64.2	64.2	64.2	96	63.0	0	1	90	0.00	29.976 
08:30	64.3	64.3	64.3	96	63.1	0	0	---	0.00	29.976 
08:35	64.5	64.5	64.5	96	63.3	0	0	---	0.00	29.976 
08:40	64.7	64.7	64.7	96	63.5	0	0	---	0.01	29.976 
08:45	64.7	64.7	64.7	96	63.5	0	1	90	0.03	29.977 
08:50	64.8	64.8	64.8	96	63.6	0	1	90	0.02	29.977 
08:55	64.8	64.8	64.8	96	63.6	0	1	90	0.01	29.977 
09:00	65.0	65.0	65.0	96	63.8	0	0	---	0.00	29.988 
09:05	65.2	65.2	65.2	96	64.0	0	1	90	0.01	29.988 
09:10	65.3	65.3	65.3	96	64.1	0	2	90	0.00	29.988 
09:15	65.3	65.3	65.3	96	64.1	0	0	---	0.01	29.991 
09:20	65.5	65.5	65.5	97	64.6	0	1	90	0.01	29.991 
09:25	65.5	65.5	65.5	96	64.3	0	0	---	0.00	29.991 
09:30	65.5	65.5	65.5	96	64.3	0	0	---	0.00	29.990 
09:35	65.6	65.6	65.6	97	64.7	0	0	---	0.01	29.990 
09:40	65.8	65.8	65.8	97	64.9	0	0	---	0.01	29.990 
09:45	66.0	66.0	66.0	97	65.1	0	0	---	0.00	29.989 
09:50	66.3	66.3	66.3	97	65.4	0	0	---	0.00	29.989 
09:55	66.6	66.6	66.6	97	65.7	0	0	---	0.01	29.989 
10:00	66.9	66.9	66.9	97	66.0	0	0	---	0.00	29.990 
10:05	67.1	67.1	67.1	97	66.2	0	1	90	0.00	29.990 
10:10	67.1	67.1	67.1	97	66.2	0	0	---	0.01	29.990 
10:15	66.9	66.9	66.9	97	66.0	0	1	90	0.01	29.990 
10:20	66.9	66.9	66.9	97	66.0	0	1	90	0.02	29.990 
10:25	67.1	67.1	67.1	97	66.2	0	1	90	0.01	29.990 
10:30	67.1	67.1	67.1	97	66.2	0	1	90	0.00	29.989 
10:35	67.3	67.3	67.3	97	66.4	0	2	112	0.00	29.989 
10:40	67.3	67.3	67.3	97	66.4	0	1	112	0.00	29.989 
10:45	67.3	67.3	67.3	97	66.4	0	1	112	0.00	29.985 
10:50	67.3	67.3	67.3	97	66.4	0	1	112	0.00	29.985 
10:55	67.3	67.3	67.3	97	66.4	0	1	112	0.00	29.985 
11:00	67.3	67.3	67.3	97	66.4	0	1	112	0.01	29.986 
11:05	67.3	67.3	67.3	97	66.4	0	2	112	0.00	29.986 
11:10	67.4	67.4	67.4	97	66.5	0	2	112	0.00	29.986 
11:15	67.6	67.6	67.6	97	66.7	0	1	112	0.00	29.987 
11:20	67.8	67.8	67.8	97	66.9	0	1	112	0.00	29.987 
11:25	67.8	67.8	67.8	97	66.9	0	1	112	0.00	29.987 
11:30	67.9	67.9	67.9	97	67.0	0	1	112	0.00	29.984 
11:35	68.1	68.1	68.1	97	67.2	0	2	112	0.00	29.984 
11:40	68.3	68.3	68.3	97	67.4	0	2	135	0.00	29.984 
11:45	68.4	68.4	68.4	97	67.5	0	1	135	0.00	29.978 
11:50	68.4	68.4	68.4	97	67.5	0	0	---	0.00	29.978 
11:55	68.4	68.4	68.4	97	67.5	0	1	135	0.00	29.978 
12:00	68.6	68.6	68.6	97	67.7	0	1	135	0.00	29.965 
12:05	69.4	69.4	69.4	97	68.5	0	1	135	0.00	29.965 
12:10	69.8	69.8	69.8	97	68.9	0	2	135	0.00	29.965 
12:15	69.9	69.9	69.9	97	69.0	0	3	135	0.00	29.955 
12:20	69.9	69.9	69.9	97	69.0	0	1	135	0.00	29.955 
12:25	70.1	70.1	70.1	96	68.9	0	1	135	0.00	29.955 
12:30	70.1	70.1	70.1	96	68.9	0	1	135	0.00	29.953 
12:35	70.4	70.4	70.4	96	69.2	0	2	135	0.00	29.953 
12:40	70.9	70.9	70.9	96	69.7	0	1	135	0.00	29.953 
12:45	71.6	71.6	71.6	96	70.4	0	1	135	0.01	29.943 
12:50	72.0	72.0	72.0	96	70.8	0	2	135	0.00	29.943 
12:55	72.3	72.3	72.3	96	71.1	0	3	135	0.00	29.943 
13:00	72.5	72.5	72.5	96	71.3	0	2	135	0.00	29.941 
13:05	72.7	72.7	72.7	94	70.9	0	2	135	0.00	29.941 
13:10	72.7	72.7	72.7	93	70.6	0	1	135	0.00	29.941 
13:15	73.0	73.0	73.0	93	70.8	0	1	135	0.00	29.952 
13:20	73.5	73.5	73.5	92	71.0	0	2	45	0.00	29.952 
13:25	74.0	74.0	74.0	91	71.2	0	2	45	0.00	29.952 
13:30	74.7	74.7	74.7	89	71.2	0	2	45	0.00	29.947 
13:35	75.1	75.1	74.9	86	70.6	0	2	45	0.00	29.947 
13:40	75.4	75.4	75.7	84	70.2	0	1	68	0.00	29.947 
13:45	75.4	75.4	75.9	82	69.5	0	1	68	0.00	29.949 
13:50	75.4	75.4	76.1	80	68.8	0	2	68	0.00	29.949 
13:55	75.4	75.4	76.0	81	69.1	0	1	68	0.00	29.949 
14:00	75.3	75.3	75.9	81	69.1	0	2	68	0.00	29.945 
14:05	75.1	75.1	75.7	80	68.5	0	3	68	0.00	29.945 
14:10	75.1	75.1	75.6	81	68.9	0	2	68	0.00	29.945 
14:15	74.9	74.9	74.9	81	68.7	1	4	112	0.00	29.937 
14:20	74.7	74.7	74.7	81	68.5	1	3	112	0.00	29.937 
14:25	74.7	74.7	74.7	81	68.5	0	1	90	0.00	29.937 
14:30	74.6	74.6	74.6	82	68.7	0	1	90	0.00	29.936 
14:35	74.4	74.4	74.4	81	68.2	0	2	90	0.00	29.936 
14:40	74.2	74.2	74.2	81	68.0	0	2	90	0.00	29.936 
14:45	74.2	74.2	74.2	82	68.3	0	2	90	0.00	29.925 
14:50	74.2	74.2	74.2	82	68.3	0	1	90	0.00	29.925 
14:55	74.2	74.2	74.2	82	68.3	0	1	90	0.00	29.925 
15:00	74.4	74.4	74.4	83	68.9	0	1	90	0.00	29.924 
15:05	74.7	74.7	74.7	81	68.5	0	2	90	0.00	29.924 
15:10	75.1	75.1	75.8	79	68.1	0	2	90	0.00	29.924 
15:15	75.4	75.4	76.2	79	68.4	0	2	90	0.00	29.920 
15:20	75.4	75.4	76.4	77	67.7	0	2	90	0.00	29.920 
15:25	76.0	76.0	77.2	78	68.6	0	3	90	0.00	29.920 
15:30	76.5	76.5	77.9	77	68.7	0	2	90	0.00	29.901 
15:35	76.8	76.8	78.4	76	68.6	1	2	90	0.00	29.901 
15:40	77.4	77.4	79.3	76	69.2	0	1	90	0.00	29.901 
15:45	77.9	77.9	80.0	74	68.9	1	2	270	0.00	29.890 
15:50	77.9	77.9	80.0	73	68.5	0	3	270	0.00	29.890 
15:55	77.9	77.9	80.0	74	68.9	0	3	270	0.00	29.890 
16:00	77.9	77.9	80.0	73	68.5	0	2	270	0.00	29.890 
16:05	77.9	77.9	80.0	74	68.9	0	3	270	0.00	29.890 
16:10	78.1	78.1	80.3	75	69.5	0	2	270	0.00	29.890 
16:15	77.7	77.7	79.7	74	68.7	0	3	112	0.00	29.890 
16:20	77.7	77.7	79.7	75	69.1	0	1	112	0.00	29.890 
16:25	77.7	77.7	79.7	75	69.1	1	3	90	0.00	29.890 
16:30	77.9	77.9	80.0	74	68.9	0	3	112	0.00	29.889 
16:35	78.1	78.1	80.3	75	69.5	0	3	22	0.00	29.889 
16:40	78.1	78.1	80.3	74	69.1	0	3	112	0.00	29.889 
16:45	78.1	78.1	80.3	73	68.7	1	2	112	0.00	29.883 
16:50	77.9	77.9	80.0	73	68.5	1	3	112	0.00	29.883 
16:55	77.9	77.9	80.0	74	68.9	0	1	338	0.00	29.883 
17:00	77.7	77.7	79.7	73	68.3	0	3	338	0.00	29.881 
17:05	77.7	77.7	79.7	74	68.7	0	2	315	0.00	29.881 
17:10	77.6	77.6	79.6	75	69.0	0	1	22	0.00	29.881 
17:15	77.4	77.4	79.3	75	68.8	0	1	22	0.00	29.876 
17:20	77.4	77.4	79.3	75	68.8	0	1	22	0.00	29.876 
17:25	77.2	77.2	79.0	76	69.0	0	2	22	0.00	29.876 
17:30	77.0	77.0	78.7	76	68.8	0	1	22	0.00	29.873 
17:35	77.0	77.0	78.7	76	68.8	0	2	68	0.00	29.873 
17:40	77.0	77.0	78.7	75	68.5	0	3	135	0.00	29.873 
17:45	77.0	77.0	78.7	75	68.5	0	1	135	0.00	29.866 
17:50	77.0	77.0	78.7	75	68.5	0	2	135	0.00	29.866 
17:55	77.0	77.0	78.7	76	68.8	0	1	135	0.00	29.866 
18:00	76.8	76.8	78.4	75	68.3	0	2	135	0.00	29.869 
18:05	76.8	76.8	78.4	75	68.3	0	3	135	0.00	29.869 
18:10	76.7	76.7	78.3	75	68.2	0	1	158	0.00	29.869 
18:15	76.7	76.7	78.3	74	67.8	0	4	112	0.00	29.872 
18:20	76.5	76.5	78.1	73	67.2	1	3	90	0.00	29.872 
18:25	76.3	76.3	77.8	73	67.0	0	4	315	0.00	29.872 
18:30	76.1	76.1	77.6	73	66.8	0	1	270	0.00	29.872 
18:35	76.1	76.1	77.6	73	66.8	0	2	292	0.00	29.872 
18:40	76.0	76.0	77.5	73	66.7	0	3	45	0.00	29.872 
18:45	75.8	75.8	77.2	74	66.9	0	2	45	0.00	29.871 
18:50	75.6	75.6	77.0	74	66.7	0	1	45	0.00	29.871 
18:55	75.4	75.4	76.6	75	66.9	0	1	45	0.00	29.871 
19:00	75.4	75.4	76.6	75	66.9	0	4	225	0.00	29.879 
19:05	75.4	75.4	76.6	75	66.9	0	1	225	0.00	29.879 
19:10	75.4	75.4	76.5	76	67.3	0	3	292	0.00	29.879 
19:15	75.3	75.3	76.4	76	67.2	0	2	292	0.00	29.876 
19:20	75.3	75.3	76.3	77	67.6	0	4	248	0.00	29.876 
19:25	75.3	75.3	76.3	77	67.6	0	2	248	0.00	29.876 
19:30	75.3	75.3	76.2	78	68.0	0	2	248	0.00	29.877 
19:35	75.1	75.1	76.0	78	67.8	0	3	248	0.00	29.877 
19:40	75.1	75.1	75.8	79	68.1	0	2	248	0.00	29.877 
19:45	74.9	74.9	74.9	79	67.9	1	5	315	0.00	29.881 
19:50	74.9	74.9	74.9	80	68.3	0	4	270	0.00	29.881 
19:55	74.6	74.6	74.6	81	68.4	1	6	292	0.00	29.881 
20:00	74.0	74.0	74.0	83	68.5	0	1	292	0.02	29.878 
20:05	73.5	73.5	73.5	85	68.7	0	2	0	0.02	29.878 
20:10	73.0	73.0	73.0	87	68.9	1	4	112	0.01	29.878 
20:15	72.5	72.5	72.5	88	68.7	0	2	112	0.00	29.851 
20:20	72.3	72.3	72.3	88	68.5	0	2	112	0.00	29.851 
20:25	72.0	72.0	72.0	89	68.6	0	1	112	0.00	29.851 
20:30	71.8	71.8	71.8	90	68.7	0	1	112	0.00	29.857 
20:35	71.6	71.6	71.6	90	68.5	0	1	112	0.00	29.857 
20:40	71.5	71.5	71.5	90	68.4	0	1	112	0.00	29.857 
20:45	71.5	71.5	71.5	90	68.4	0	4	112	0.00	29.859 
20:50	71.5	71.5	71.5	91	68.7	0	1	112	0.00	29.859 
20:55	71.3	71.3	71.3	91	68.5	0	2	112	0.00	29.859 
21:00	71.3	71.3	71.3	90	68.2	0	2	112	0.00	29.858 
21:05	71.1	71.1	71.1	90	68.0	0	2	22	0.00	29.858 
21:10	70.9	70.9	70.9	90	67.8	0	2	45	0.00	29.858 
21:15	70.9	70.9	70.9	90	67.8	0	2	45	0.00	29.847 
21:20	70.8	70.8	70.8	90	67.7	0	1	45	0.00	29.847 
21:25	70.8	70.8	70.8	91	68.0	0	2	45	0.01	29.847 
21:30	70.6	70.6	70.6	91	67.8	0	3	45	0.00	29.850 
21:35	70.6	70.6	70.6	91	67.8	1	6	112	0.00	29.850 
21:40	70.4	70.4	70.4	91	67.6	0	3	68	0.00	29.850 
21:45	70.4	70.4	70.4	91	67.6	0	3	135	0.00	29.846 
21:50	70.3	70.3	70.3	91	67.5	0	3	22	0.00	29.846 
21:55	70.1	70.1	70.1	91	67.3	0	4	135	0.00	29.846 
22:00	70.1	70.1	70.1	91	67.3	0	2	270	0.00	29.852 
22:05	69.9	69.9	69.9	91	67.1	0	2	270	0.00	29.852 
22:10	69.9	69.9	69.9	92	67.5	1	3	68	0.00	29.852 
22:15	69.9	69.9	69.9	92	67.5	0	3	90	0.00	29.847 
22:20	69.9	69.9	69.9	92	67.5	1	4	68	0.00	29.847 
22:25	69.8	69.8	69.8	92	67.4	0	2	338	0.00	29.847 
22:30	69.8	69.8	69.8	92	67.4	0	2	338	0.00	29.851 
22:35	69.8	69.8	69.8	92	67.4	0	1	338	0.00	29.851 
22:40	69.8	69.8	69.8	92	67.4	0	2	338	0.00	29.851 
22:45	69.6	69.6	69.6	92	67.2	0	3	338	0.00	29.851 
22:50	69.6	69.6	69.6	92	67.2	0	1	338	0.00	29.851 
22:55	69.6	69.6	69.6	92	67.2	0	1	338	0.00	29.851 
23:00	69.4	69.4	69.4	92	67.0	0	1	338	0.00	29.845 
23:05	69.4	69.4	69.4	92	67.0	0	0	---	0.00	29.845 
23:10	69.4	69.4	69.4	92	67.0	0	0	---	0.00	29.845 
23:15	69.4	69.4	69.4	92	67.0	0	1	338	0.00	29.835 
23:20	69.4	69.4	69.4	93	67.3	0	0	---	0.00	29.835 
23:25	69.4	69.4	69.4	93	67.3	0	1	338	0.00	29.835 
23:30	69.4	69.4	69.4	93	67.3	0	1	338	0.00	29.842 
23:35	69.4	69.4	69.4	93	67.3	0	1	338	0.00	29.842 
23:40	69.4	69.4	69.4	93	67.3	0	2	338	0.00	29.842 
23:45	69.6	69.6	69.6	93	67.5	0	2	338	0.00	29.850 
23:50	69.6	69.6	69.6	93	67.5	0	2	338	0.00	29.850 
23:55	69.6	69.6	69.6	93	67.5	0	0	---	0.00	29.850 

CoCoRaHS
IN-AL-39
A2 Web Hosting
Creative Commons License
GoDaddy
search engine by freefind advanced

loaded 2018-11-18 11:39:07 • last modified 2010-11-18 10:43:29
Privacy PolicyDisclaimer
• wx.awcolley.com is powered by PmWiki v.2002016 •
• all content (unless otherwise noted) © 2018 A W Colley